Time,TemperatureF,DewpointF,PressureIn,WindDirection,WindDirectionDegrees,WindSpeedMPH,WindSpeedGustMPH,Humidity,HourlyPrecipIn,Conditions,Clouds,dailyrainin,SolarRadiationWatts/m^2,SoftwareType,DateUTC
2013-02-25 00:11:00,21.0,10.0,-100.00,NNW,329,4.0,14.0,62,0.00,,,0.06,0.000000,,2013-02-25 07:11:00,
2013-02-25 00:21:00,21.0,10.0,-100.00,NNW,329,4.0,14.0,62,0.00,,,0.06,0.000000,,2013-02-25 07:21:00,
2013-02-25 00:31:00,21.0,10.0,-100.00,NNW,329,4.0,14.0,62,0.00,,,0.06,0.000000,,2013-02-25 07:31:00,
2013-02-25 00:51:00,18.0,10.0,-100.00,North,352,3.0,8.0,70,0.00,,,0.06,0.000000,,2013-02-25 07:51:00,
2013-02-25 01:21:00,18.0,10.0,-100.00,North,352,3.0,8.0,70,0.00,,,0.06,0.000000,,2013-02-25 08:21:00,
2013-02-25 01:31:00,18.0,10.0,-100.00,North,352,3.0,8.0,70,0.00,,,0.06,0.000000,,2013-02-25 08:31:00,
2013-02-25 01:41:00,18.0,10.0,-100.00,North,352,3.0,8.0,70,0.00,,,0.06,0.000000,,2013-02-25 08:41:00,
2013-02-25 02:21:00,18.0,9.0,-100.00,NW,321,8.0,11.0,68,0.00,,,0.06,0.000000,,2013-02-25 09:21:00,
2013-02-25 02:31:00,18.0,9.0,-100.00,NW,321,8.0,11.0,68,0.00,,,0.06,0.000000,,2013-02-25 09:31:00,
2013-02-25 03:21:00,17.0,9.0,-100.00,NW,318,4.0,10.0,70,-99.99,,,0.06,0.000000,,2013-02-25 10:21:00,
2013-02-25 03:31:00,17.0,9.0,-100.00,NW,318,4.0,10.0,70,-99.99,,,0.06,0.000000,,2013-02-25 10:31:00,
2013-02-25 03:51:00,13.0,6.0,-100.00,WNW,295,4.0,5.0,72,-99.99,,,0.06,0.000000,,2013-02-25 10:51:00,
2013-02-25 04:11:00,13.0,6.0,-100.00,WNW,295,4.0,5.0,72,-99.99,,,0.06,0.000000,,2013-02-25 11:11:00,
2013-02-25 04:21:00,13.0,6.0,-100.00,WNW,295,4.0,5.0,72,-99.99,,,0.06,0.000000,,2013-02-25 11:21:00,
2013-02-25 04:32:00,13.0,6.0,-100.00,WNW,295,4.0,5.0,72,-99.99,,,0.06,0.000000,,2013-02-25 11:32:00,
2013-02-25 04:42:00,13.0,6.0,-100.00,WNW,295,4.0,5.0,72,-99.99,,,0.06,0.000000,,2013-02-25 11:42:00,
2013-02-25 04:51:00,12.0,6.0,-100.00,West,270,2.0,4.0,76,0.00,,,0.06,0.000000,,2013-02-25 11:51:00,
2013-02-25 05:11:00,12.0,6.0,-100.00,West,270,2.0,4.0,76,0.00,,,0.06,0.000000,,2013-02-25 12:11:00,
2013-02-25 05:21:00,12.0,6.0,-100.00,West,270,2.0,4.0,76,0.00,,,0.06,0.000000,,2013-02-25 12:21:00,
2013-02-25 05:32:00,12.0,6.0,-100.00,West,270,2.0,4.0,76,0.00,,,0.06,0.000000,,2013-02-25 12:32:00,
2013-02-25 05:42:00,12.0,6.0,-100.00,West,270,2.0,4.0,76,0.00,,,0.06,0.000000,,2013-02-25 12:42:00,
2013-02-25 05:51:00,10.0,4.0,-100.00,West,265,3.0,6.0,77,-99.99,,,0.06,0.000000,,2013-02-25 12:51:00,
2013-02-25 06:12:00,10.0,4.0,-100.00,West,265,3.0,6.0,77,-99.99,,,0.06,0.000000,,2013-02-25 13:12:00,
2013-02-25 06:22:00,10.0,4.0,-100.00,West,265,3.0,6.0,77,-99.99,,,0.06,0.000000,,2013-02-25 13:22:00,
2013-02-25 06:32:00,10.0,4.0,-100.00,West,265,3.0,6.0,77,-99.99,,,0.06,0.000000,,2013-02-25 13:32:00,
2013-02-25 06:41:00,10.0,4.0,-100.00,West,265,3.0,6.0,77,-99.99,,,0.06,0.000000,,2013-02-25 13:41:00,
2013-02-25 06:51:00,11.0,6.0,-100.00,SE,142,4.0,6.0,80,0.00,,,-99.99,1.000000,,2013-02-25 13:51:00,
2013-02-25 07:16:00,11.0,6.0,-100.00,SE,142,4.0,6.0,80,0.00,,,-99.99,1.000000,,2013-02-25 14:16:00,
2013-02-25 07:22:00,11.0,6.0,-100.00,SE,142,4.0,6.0,80,0.00,,,-99.99,1.000000,,2013-02-25 14:22:00,
2013-02-25 07:31:00,11.0,6.0,-100.00,SE,142,4.0,6.0,80,0.00,,,-99.99,1.000000,,2013-02-25 14:31:00,
2013-02-25 07:41:00,11.0,6.0,-100.00,SE,142,4.0,6.0,80,0.00,,,-99.99,1.000000,,2013-02-25 14:41:00,
2013-02-25 07:51:00,14.0,4.0,-100.00,NNE,20,2.0,5.0,63,0.00,,,0.06,89.000000,,2013-02-25 14:51:00,
2013-02-25 08:11:00,14.0,4.0,-100.00,NNE,20,2.0,5.0,63,0.00,,,0.06,89.000000,,2013-02-25 15:11:00,
2013-02-25 08:21:00,14.0,4.0,-100.00,NNE,20,2.0,5.0,63,0.00,,,0.06,89.000000,,2013-02-25 15:21:00,
2013-02-25 08:32:00,14.0,4.0,-100.00,NNE,20,2.0,5.0,63,0.00,,,0.06,89.000000,,2013-02-25 15:32:00,
2013-02-25 08:41:00,14.0,4.0,-100.00,NNE,20,2.0,5.0,63,0.00,,,0.06,89.000000,,2013-02-25 15:41:00,
2013-02-25 08:51:00,19.0,7.0,-100.00,ESE,112,4.0,9.0,59,0.00,,,0.06,340.000000,,2013-02-25 15:51:00,
2013-02-25 09:21:00,19.0,7.0,-100.00,ESE,112,4.0,9.0,59,0.00,,,0.06,340.000000,,2013-02-25 16:21:00,
2013-02-25 09:31:00,19.0,7.0,-100.00,ESE,112,4.0,9.0,59,0.00,,,0.06,340.000000,,2013-02-25 16:31:00,
2013-02-25 09:41:00,19.0,7.0,-100.00,ESE,112,4.0,9.0,59,0.00,,,0.06,340.000000,,2013-02-25 16:41:00,
2013-02-25 09:51:00,24.0,9.0,-100.00,ESE,120,5.0,9.0,52,0.00,,,0.06,567.000000,,2013-02-25 16:51:00,
2013-02-25 10:21:00,24.0,9.0,-100.00,ESE,120,5.0,9.0,52,0.00,,,0.06,567.000000,,2013-02-25 17:21:00,
2013-02-25 10:31:00,24.0,9.0,-100.00,ESE,120,5.0,9.0,52,0.00,,,0.06,567.000000,,2013-02-25 17:31:00,
2013-02-25 10:41:00,24.0,9.0,-100.00,ESE,120,5.0,9.0,52,0.00,,,0.06,567.000000,,2013-02-25 17:41:00,
2013-02-25 10:51:00,28.0,11.0,-100.00,NNW,332,2.0,11.0,49,0.00,,,0.01,699.000000,,2013-02-25 17:51:00,
2013-02-25 11:12:00,28.0,11.0,-100.00,NNW,332,2.0,11.0,49,0.00,,,0.01,699.000000,,2013-02-25 18:12:00,
2013-02-25 11:21:00,28.0,11.0,-100.00,NNW,332,2.0,11.0,49,0.00,,,0.01,699.000000,,2013-02-25 18:21:00,
2013-02-25 11:32:00,28.0,11.0,-100.00,NNW,332,2.0,11.0,49,0.00,,,0.01,699.000000,,2013-02-25 18:32:00,
2013-02-25 11:41:00,28.0,11.0,-100.00,NNW,332,2.0,11.0,49,0.00,,,0.01,699.000000,,2013-02-25 18:41:00,
2013-02-25 11:51:00,32.0,12.0,-100.00,NNW,339,2.0,6.0,42,0.00,,,0.01,773.000000,,2013-02-25 18:51:00,
2013-02-25 12:11:00,32.0,12.0,-100.00,NNW,339,2.0,6.0,42,0.00,,,0.01,773.000000,,2013-02-25 19:11:00,
2013-02-25 12:21:00,32.0,12.0,-100.00,NNW,339,2.0,6.0,42,0.00,,,0.01,773.000000,,2013-02-25 19:21:00,
2013-02-25 12:31:00,32.0,12.0,-100.00,NNW,339,2.0,6.0,42,0.00,,,0.01,773.000000,,2013-02-25 19:31:00,
2013-02-25 12:41:00,32.0,12.0,-100.00,NNW,339,2.0,6.0,42,0.00,,,0.01,773.000000,,2013-02-25 19:41:00,
2013-02-25 13:11:00,40.0,11.0,-100.00,West,276,0.0,6.0,30,0.00,,,0.01,833.000000,,2013-02-25 20:11:00,
2013-02-25 13:21:00,40.0,11.0,-100.00,West,276,0.0,6.0,30,0.00,,,0.01,833.000000,,2013-02-25 20:21:00,
2013-02-25 13:51:00,34.0,8.0,-100.00,NW,319,4.0,6.0,33,-99.99,,,0.00,860.000000,,2013-02-25 20:51:00,
2013-02-25 14:11:00,34.0,8.0,-100.00,NW,319,4.0,6.0,33,-99.99,,,0.00,860.000000,,2013-02-25 21:11:00,
2013-02-25 14:21:00,34.0,8.0,-100.00,NW,319,4.0,6.0,33,-99.99,,,0.00,860.000000,,2013-02-25 21:21:00,
2013-02-25 14:31:00,34.0,8.0,-100.00,NW,319,4.0,6.0,33,-99.99,,,0.00,860.000000,,2013-02-25 21:31:00,
2013-02-25 14:41:00,34.0,8.0,-100.00,NW,319,4.0,6.0,33,-99.99,,,0.00,860.000000,,2013-02-25 21:41:00,
2013-02-25 14:51:00,35.0,9.0,-100.00,West,266,5.0,-999.0,33,0.00,,,0.00,,,2013-02-25 21:51:00,
2013-02-25 15:11:00,35.0,9.0,-100.00,West,266,5.0,-999.0,33,0.00,,,0.00,,,2013-02-25 22:11:00,
2013-02-25 15:21:00,35.0,9.0,-100.00,West,266,5.0,-999.0,33,0.00,,,0.00,,,2013-02-25 22:21:00,
2013-02-25 15:31:00,35.0,9.0,-100.00,West,266,5.0,-999.0,33,0.00,,,0.00,,,2013-02-25 22:31:00,
2013-02-25 15:41:00,35.0,9.0,-100.00,West,266,5.0,-999.0,33,0.00,,,0.00,,,2013-02-25 22:41:00,
2013-02-25 15:51:00,36.0,9.0,-100.00,West,260,3.0,9.0,32,0.00,,,0.00,586.000000,,2013-02-25 22:51:00,
2013-02-25 16:11:00,36.0,9.0,-100.00,West,260,3.0,9.0,32,0.00,,,0.00,586.000000,,2013-02-25 23:11:00,
2013-02-25 16:22:00,36.0,9.0,-100.00,West,260,3.0,9.0,32,0.00,,,0.00,586.000000,,2013-02-25 23:22:00,
2013-02-25 16:31:00,36.0,9.0,-100.00,West,260,3.0,9.0,32,0.00,,,0.00,586.000000,,2013-02-25 23:31:00,
2013-02-25 16:41:00,36.0,9.0,-100.00,West,260,3.0,9.0,32,0.00,,,0.00,586.000000,,2013-02-25 23:41:00,
2013-02-25 16:51:00,35.0,8.0,-100.00,West,263,3.0,4.0,32,0.00,,,0.00,350.000000,,2013-02-25 23:51:00,
2013-02-25 17:11:00,35.0,8.0,-100.00,West,263,3.0,4.0,32,0.00,,,0.00,350.000000,,2013-02-26 00:11:00,
2013-02-25 17:21:00,35.0,8.0,-100.00,West,263,3.0,4.0,32,0.00,,,0.00,350.000000,,2013-02-26 00:21:00,
2013-02-25 17:32:00,35.0,8.0,-100.00,West,263,3.0,4.0,32,0.00,,,0.00,350.000000,,2013-02-26 00:32:00,
2013-02-25 17:41:00,35.0,8.0,-100.00,West,263,3.0,4.0,32,0.00,,,0.00,350.000000,,2013-02-26 00:41:00,
2013-02-25 17:51:00,30.0,9.0,-100.00,SW,215,1.0,4.0,40,0.00,,,0.00,122.000000,,2013-02-26 00:51:00,
2013-02-25 18:11:00,30.0,9.0,-100.00,SW,215,1.0,4.0,40,0.00,,,0.00,122.000000,,2013-02-26 01:11:00,
2013-02-25 18:21:00,30.0,9.0,-100.00,SW,215,1.0,4.0,40,0.00,,,0.00,122.000000,,2013-02-26 01:21:00,
2013-02-25 18:31:00,30.0,9.0,-100.00,SW,215,1.0,4.0,40,0.00,,,0.00,122.000000,,2013-02-26 01:31:00,
2013-02-25 18:41:00,30.0,9.0,-100.00,SW,215,1.0,4.0,40,0.00,,,0.00,122.000000,,2013-02-26 01:41:00,
2013-02-25 18:51:00,29.0,9.0,-100.00,South,191,3.0,5.0,42,0.00,,,0.00,2.000000,,2013-02-26 01:51:00,
2013-02-25 19:11:00,29.0,9.0,-100.00,South,191,3.0,5.0,42,0.00,,,0.00,2.000000,,2013-02-26 02:11:00,
2013-02-25 19:21:00,29.0,9.0,-100.00,South,191,3.0,5.0,42,0.00,,,0.00,2.000000,,2013-02-26 02:21:00,
2013-02-25 19:32:00,29.0,9.0,-100.00,South,191,3.0,5.0,42,0.00,,,0.00,2.000000,,2013-02-26 02:32:00,
2013-02-25 19:41:00,29.0,9.0,-100.00,South,191,3.0,5.0,42,0.00,,,0.00,2.000000,,2013-02-26 02:41:00,
2013-02-25 20:11:00,28.0,8.0,-100.00,SSE,162,1.0,5.0,42,-99.99,,,0.00,0.000000,,2013-02-26 03:11:00,
2013-02-25 20:21:00,28.0,8.0,-100.00,SSE,162,1.0,5.0,42,-99.99,,,0.00,0.000000,,2013-02-26 03:21:00,
2013-02-25 20:31:00,28.0,8.0,-100.00,SSE,162,1.0,5.0,42,-99.99,,,0.00,0.000000,,2013-02-26 03:31:00,
2013-02-25 20:51:00,26.0,9.0,-100.00,ESE,102,2.0,3.0,49,-99.99,,,0.00,0.000000,,2013-02-26 03:51:00,
2013-02-25 21:21:00,26.0,9.0,-100.00,ESE,102,2.0,3.0,49,-99.99,,,0.00,0.000000,,2013-02-26 04:21:00,
2013-02-25 21:32:00,26.0,9.0,-100.00,ESE,102,2.0,3.0,49,-99.99,,,0.00,0.000000,,2013-02-26 04:32:00,
2013-02-25 21:42:00,26.0,9.0,-100.00,ESE,102,2.0,3.0,49,-99.99,,,0.00,0.000000,,2013-02-26 04:42:00,
2013-02-25 21:51:00,22.0,9.0,-100.00,West,274,5.0,9.0,57,0.00,,,0.00,0.000000,,2013-02-26 04:51:00,
2013-02-25 22:11:00,22.0,9.0,-100.00,West,274,5.0,9.0,57,0.00,,,0.00,0.000000,,2013-02-26 05:11:00,
2013-02-25 22:21:00,22.0,9.0,-100.00,West,274,5.0,9.0,57,0.00,,,0.00,0.000000,,2013-02-26 05:21:00,
2013-02-25 22:31:00,22.0,9.0,-100.00,West,274,5.0,9.0,57,0.00,,,0.00,0.000000,,2013-02-26 05:31:00,
2013-02-25 22:42:00,22.0,9.0,-100.00,West,274,5.0,9.0,57,0.00,,,0.00,0.000000,,2013-02-26 05:42:00,
2013-02-25 22:51:00,24.0,9.0,-100.00,NNW,334,0.0,7.0,52,0.00,,,0.00,0.000000,,2013-02-26 05:51:00,
2013-02-25 23:21:00,24.0,9.0,-100.00,NNW,334,0.0,7.0,52,0.00,,,0.00,0.000000,,2013-02-26 06:21:00,
2013-02-25 23:31:00,24.0,9.0,-100.00,NNW,334,0.0,7.0,52,0.00,,,0.00,0.000000,,2013-02-26 06:31:00,
2013-02-25 23:41:00,24.0,9.0,-100.00,NNW,334,0.0,7.0,52,0.00,,,0.00,0.000000,,2013-02-26 06:41:00,
2013-02-25 23:51:00,24.0,10.0,-100.00,South,183,3.0,4.0,54,0.00,,,0.00,0.000000,,2013-02-26 06:51:00,